createdAt,value
2019-03-27T00:01:52.953Z,85617.03
2019-03-27T00:04:22.774Z,85449.25
2019-03-27T00:06:52.611Z,85361.99
2019-03-27T00:09:22.351Z,85341.10
2019-03-27T00:11:52.187Z,85436.08
2019-03-27T00:14:22.009Z,85364.36
2019-03-27T00:16:51.835Z,85100.17
2019-03-27T00:19:22.391Z,85100.17
2019-03-27T00:21:52.129Z,85134.02
2019-03-27T00:24:21.957Z,85157.59
2019-03-27T00:26:53.357Z,85157.59
2019-03-27T00:29:23.163Z,85028.70
2019-03-27T00:31:52.930Z,85157.88
2019-03-27T00:34:22.709Z,85221.03
2019-03-27T00:36:52.485Z,85182.89
2019-03-27T00:39:22.218Z,85201.67
2019-03-27T00:41:51.969Z,84906.26
2019-03-27T00:44:21.719Z,84830.19
2019-03-27T00:46:51.427Z,85010.93
2019-03-27T00:49:21.183Z,85097.64
2019-03-27T00:51:50.986Z,85162.31
2019-03-27T00:54:20.825Z,85023.97
2019-03-27T00:56:50.852Z,84716.59
2019-03-27T00:59:20.684Z,84435.42
2019-03-27T01:01:50.427Z,84644.98
2019-03-27T01:04:20.195Z,84889.25
2019-03-27T01:06:51.090Z,85147.20
2019-03-27T01:09:21.081Z,85215.11
2019-03-27T01:11:50.848Z,85336.37
2019-03-27T01:14:20.698Z,85208.85
2019-03-27T01:16:50.220Z,85099.66
2019-03-27T01:19:19.900Z,85099.66
2019-03-27T01:21:49.759Z,85135.36
2019-03-27T01:24:19.895Z,84974.95
2019-03-27T01:26:49.618Z,84991.45
2019-03-27T01:29:19.464Z,84882.27
2019-03-27T01:31:49.199Z,84905.48
2019-03-27T01:34:18.972Z,84915.82
2019-03-27T01:36:48.824Z,84950.08
2019-03-27T01:39:18.676Z,84979.61
2019-03-27T01:41:48.322Z,84979.61
2019-03-27T01:44:18.131Z,85076.39
2019-03-27T01:46:48.022Z,84847.02
2019-03-27T01:49:17.762Z,84838.72
2019-03-27T01:51:47.548Z,84683.02
2019-03-27T01:54:17.320Z,84668.52
2019-03-27T01:56:47.094Z,84344.53
2019-03-27T01:59:16.879Z,84342.20
2019-03-27T02:01:46.620Z,84501.61
2019-03-27T02:04:16.383Z,84544.58
2019-03-27T02:06:46.107Z,84387.16
2019-03-27T02:09:15.819Z,84223.97
2019-03-27T02:11:45.561Z,84330.90
2019-03-27T02:14:15.388Z,84255.88
2019-03-27T02:16:45.067Z,84385.91
2019-03-27T02:19:14.759Z,84379.67
2019-03-27T02:21:44.472Z,84381.50
2019-03-27T02:24:14.145Z,84430.00
2019-03-27T02:26:43.935Z,84324.44
2019-03-27T02:29:13.651Z,84373.75
2019-03-27T02:31:43.333Z,84139.66
2019-03-27T02:34:13.082Z,83816.19
2019-03-27T02:36:42.904Z,83304.31
2019-03-27T02:39:12.665Z,83303.73
2019-03-27T02:41:42.380Z,83349.53
2019-03-27T02:44:12.139Z,83413.09
2019-03-27T02:46:41.847Z,83470.03
2019-03-27T02:49:11.504Z,83478.33
2019-03-27T02:51:41.477Z,83478.33
2019-03-27T02:54:11.173Z,83860.53
2019-03-27T02:56:40.853Z,83831.00
2019-03-27T02:59:10.574Z,83831.00
2019-03-27T03:01:40.644Z,84292.14
2019-03-27T03:04:11.006Z,84472.92
2019-03-27T03:06:40.761Z,83766.27
2019-03-27T03:09:10.431Z,83393.19
2019-03-27T03:11:40.086Z,83537.28
2019-03-27T03:14:09.889Z,83744.20
2019-03-27T03:16:42.699Z,83923.59
2019-03-27T03:19:11.040Z,83996.88
2019-03-27T03:21:40.859Z,84073.63
2019-03-27T03:24:10.648Z,84107.16
2019-03-27T03:26:40.380Z,84041.03
2019-03-27T03:29:10.187Z,83893.89
2019-03-27T03:31:39.849Z,83797.04
2019-03-27T03:34:09.545Z,83964.73
2019-03-27T03:36:39.258Z,84003.16
2019-03-27T03:39:09.330Z,84030.19
2019-03-27T03:41:39.037Z,84096.92
2019-03-27T03:44:08.835Z,84013.45
2019-03-27T03:46:38.511Z,84015.95
2019-03-27T03:49:08.242Z,83956.63
2019-03-27T03:51:38.015Z,83948.09
2019-03-27T03:54:07.698Z,83931.81
2019-03-27T03:56:38.462Z,84092.87
2019-03-27T03:59:09.592Z,83736.28
2019-03-27T04:01:40.928Z,83736.28
2019-03-27T04:04:11.408Z,83759.84
2019-03-27T04:06:41.150Z,83862.22
2019-03-27T04:09:10.922Z,83930.25
2019-03-27T04:11:40.656Z,83933.80
2019-03-27T04:14:10.435Z,83835.95
2019-03-27T04:16:40.124Z,83631.47
2019-03-27T04:19:09.973Z,83618.91
2019-03-27T04:21:39.756Z,83264.92
2019-03-27T04:24:09.446Z,83133.05
2019-03-27T04:26:39.218Z,83364.31
2019-03-27T04:29:09.065Z,83661.29
2019-03-27T04:31:38.841Z,83807.73
2019-03-27T04:34:08.656Z,83969.55
2019-03-27T04:36:38.440Z,84112.78
2019-03-27T04:39:08.123Z,84283.23
2019-03-27T04:41:38.249Z,84337.73
2019-03-27T04:44:07.976Z,84298.31
2019-03-27T04:46:37.755Z,84321.94
2019-03-27T04:49:07.922Z,84492.30
2019-03-27T04:51:37.829Z,84482.49
2019-03-27T04:54:07.724Z,84583.05
2019-03-27T04:56:37.538Z,84749.16
2019-03-27T04:59:07.259Z,84690.17
2019-03-27T05:01:37.028Z,84794.05
2019-03-27T05:04:07.939Z,84828.26
2019-03-27T05:06:37.786Z,84742.87
2019-03-27T05:09:07.579Z,84444.97
2019-03-27T05:11:37.320Z,84482.06
2019-03-27T05:14:07.171Z,84695.67
2019-03-27T05:16:36.937Z,84929.49
2019-03-27T05:19:06.719Z,85039.47
2019-03-27T05:21:36.536Z,85017.33
2019-03-27T05:24:06.254Z,84977.27
2019-03-27T05:26:35.933Z,84985.56
2019-03-27T05:29:05.729Z,84792.66
2019-03-27T05:31:35.527Z,85216.09
2019-03-27T05:34:05.332Z,85216.09
2019-03-27T05:36:35.303Z,85476.10
2019-03-27T05:39:06.521Z,85654.36
2019-03-27T05:41:36.321Z,85654.36
2019-03-27T05:44:06.058Z,85673.91
2019-03-27T05:46:35.813Z,85743.00
2019-03-27T05:49:05.501Z,85916.14
2019-03-27T05:51:35.326Z,86083.28
2019-03-27T05:54:05.113Z,86086.87
2019-03-27T05:56:34.967Z,86025.09
2019-03-27T05:59:04.809Z,86022.33
2019-03-27T06:01:34.519Z,85783.21
2019-03-27T06:04:04.264Z,85945.75
2019-03-27T06:06:34.063Z,86257.44
2019-03-27T06:09:04.545Z,86116.84
2019-03-27T06:11:34.307Z,86306.27
2019-03-27T06:14:04.069Z,86148.12
2019-03-27T06:16:33.821Z,86137.12
2019-03-27T06:19:03.587Z,86223.70
2019-03-27T06:21:33.455Z,86611.20
2019-03-27T06:24:03.249Z,86479.45
2019-03-27T06:26:33.033Z,86831.64
2019-03-27T06:29:02.890Z,87172.77
2019-03-27T06:31:32.713Z,87405.74
2019-03-27T06:34:02.546Z,87691.05
2019-03-27T06:36:32.382Z,87914.80
2019-03-27T06:39:02.157Z,88125.95
2019-03-27T06:41:31.917Z,90445.00
2019-03-27T06:44:01.819Z,91682.78
2019-03-27T06:46:31.881Z,92173.60
2019-03-27T06:49:01.661Z,92455.68
2019-03-27T06:51:39.858Z,92373.76
2019-03-27T06:54:02.963Z,92721.83
2019-03-27T06:56:32.787Z,92617.99
2019-03-27T06:59:02.551Z,92588.47
2019-03-27T07:01:32.346Z,92246.45
2019-03-27T07:04:10.426Z,91599.80
2019-03-27T07:06:33.583Z,90974.49
2019-03-27T07:09:04.652Z,90635.09
2019-03-27T07:11:34.422Z,90395.48
2019-03-27T07:14:04.139Z,90225.53
2019-03-27T07:16:33.975Z,90210.18
2019-03-27T07:19:03.763Z,90282.52
2019-03-27T07:21:33.533Z,90515.50
2019-03-27T07:24:04.363Z,90572.00
2019-03-27T07:26:34.178Z,90750.47
2019-03-27T07:29:03.857Z,90614.86
2019-03-27T07:31:33.618Z,90869.99
2019-03-27T07:34:04.885Z,91114.48
2019-03-27T07:36:34.743Z,91403.01
2019-03-27T07:39:11.252Z,91416.42
2019-03-27T07:41:37.993Z,91600.67
2019-03-27T07:44:07.750Z,92493.84
2019-03-27T07:46:37.560Z,92887.31
2019-03-27T07:49:07.272Z,92929.80
2019-03-27T07:51:37.068Z,93000.14
2019-03-27T07:54:06.846Z,93214.02
2019-03-27T07:56:36.876Z,93278.17
2019-03-27T07:59:06.745Z,93309.90
2019-03-27T08:01:36.602Z,93478.89
2019-03-27T08:04:06.414Z,93635.27
2019-03-27T08:06:36.362Z,93694.06
2019-03-27T08:09:07.653Z,93794.32
2019-03-27T08:11:37.523Z,94019.02
2019-03-27T08:14:11.685Z,93930.42
2019-03-27T08:16:41.551Z,94039.95
2019-03-27T08:19:11.330Z,94259.44
2019-03-27T08:21:41.233Z,94445.10
2019-03-27T08:24:10.987Z,94528.58
2019-03-27T08:26:40.684Z,94456.12
2019-03-27T08:29:10.508Z,94604.71
2019-03-27T08:31:40.295Z,94663.04
2019-03-27T08:34:10.084Z,94752.13
2019-03-27T08:36:39.864Z,94776.72
2019-03-27T08:39:10.848Z,94861.78
2019-03-27T08:41:40.928Z,94912.66
2019-03-27T08:44:10.767Z,95030.91
2019-03-27T08:46:40.620Z,95149.02
2019-03-27T08:49:21.088Z,95337.17
2019-03-27T08:51:41.943Z,95502.18
2019-03-27T08:54:11.675Z,95571.02
2019-03-27T08:56:41.666Z,95619.21
2019-03-27T08:59:11.469Z,95563.69
2019-03-27T09:01:41.145Z,95567.88
2019-03-27T09:04:10.986Z,95550.52
2019-03-27T09:06:40.807Z,95652.52
2019-03-27T09:09:10.502Z,95728.94
2019-03-27T09:11:40.629Z,95775.06
2019-03-27T09:14:10.326Z,95794.49
2019-03-27T09:16:40.168Z,95808.36
2019-03-27T09:19:09.749Z,95873.86
2019-03-27T09:21:39.562Z,95777.54
2019-03-27T09:24:09.218Z,95821.13
2019-03-27T09:26:38.902Z,95923.38
2019-03-27T09:29:08.694Z,96000.52
2019-03-27T09:31:44.871Z,96035.41
2019-03-27T09:34:10.527Z,96060.72
2019-03-27T09:36:40.914Z,96047.33
2019-03-27T09:39:10.878Z,96013.33
2019-03-27T09:41:40.713Z,95923.17
2019-03-27T09:44:10.677Z,95960.03
2019-03-27T09:46:40.454Z,95983.78
2019-03-27T09:49:11.737Z,96013.83
2019-03-27T09:51:42.109Z,95998.90
2019-03-27T09:54:11.805Z,96042.32
2019-03-27T09:56:42.760Z,95979.88
2019-03-27T09:59:12.302Z,95924.91
2019-03-27T10:01:43.111Z,95806.00
2019-03-27T10:04:12.752Z,95730.41
2019-03-27T10:06:42.467Z,95671.94
2019-03-27T10:09:12.279Z,95541.40
2019-03-27T10:11:41.935Z,95575.30
2019-03-27T10:14:11.741Z,95629.50
2019-03-27T10:16:41.523Z,95654.39
2019-03-27T10:19:11.203Z,95567.49
2019-03-27T10:21:41.003Z,95548.19
2019-03-27T10:24:10.704Z,95508.64
2019-03-27T10:26:42.624Z,95394.01
2019-03-27T10:29:12.184Z,95280.98
2019-03-27T10:31:41.964Z,95200.06
2019-03-27T10:34:11.912Z,95276.27
2019-03-27T10:36:41.712Z,95340.41
2019-03-27T10:39:12.085Z,95344.95
2019-03-27T10:41:41.738Z,95372.05
2019-03-27T10:44:11.568Z,95347.06
2019-03-27T10:46:41.351Z,95323.03
2019-03-27T10:49:11.115Z,95276.27
2019-03-27T10:51:41.036Z,95135.94
2019-03-27T10:54:11.751Z,95082.82
2019-03-27T10:56:42.473Z,95066.23
2019-03-27T10:59:12.433Z,95039.48
2019-03-27T11:01:42.171Z,95065.95
2019-03-27T11:04:11.849Z,95144.34
2019-03-27T11:06:42.643Z,95208.52
2019-03-27T11:09:12.392Z,95295.08
2019-03-27T11:11:42.139Z,95499.38
2019-03-27T11:14:11.799Z,95621.12
2019-03-27T11:16:42.070Z,95670.33
2019-03-27T11:19:11.821Z,95692.09
2019-03-27T11:21:44.309Z,95751.43
2019-03-27T11:24:15.742Z,95729.83
2019-03-27T11:26:47.015Z,95738.72
2019-03-27T11:29:16.666Z,95698.89
2019-03-27T11:31:46.369Z,95551.05
2019-03-27T11:34:16.172Z,95464.80
2019-03-27T11:36:45.882Z,95417.02
2019-03-27T11:39:15.663Z,95385.81
2019-03-27T11:41:46.887Z,95365.77
2019-03-27T11:44:16.551Z,95383.36
2019-03-27T11:46:46.252Z,95355.47
2019-03-27T11:49:15.924Z,95392.59
2019-03-27T11:51:45.801Z,95410.55
2019-03-27T11:54:17.223Z,95419.02
2019-03-27T11:56:46.950Z,95447.91
2019-03-27T11:59:16.647Z,95405.33
2019-03-27T12:01:47.089Z,95373.85
2019-03-27T12:04:17.720Z,95353.88
2019-03-27T12:06:48.392Z,95237.47
2019-03-27T12:09:18.246Z,95188.73
2019-03-27T12:11:48.004Z,95172.89
2019-03-27T12:14:17.836Z,95164.95
2019-03-27T12:16:50.139Z,95090.41
2019-03-27T12:19:20.054Z,94998.59
2019-03-27T12:21:49.794Z,94880.14
2019-03-27T12:24:20.465Z,94885.62
2019-03-27T12:26:50.264Z,94875.05
2019-03-27T12:29:20.049Z,94744.55
2019-03-27T12:31:49.805Z,94685.53
2019-03-27T12:34:19.618Z,94652.09
2019-03-27T12:36:50.364Z,94619.97
2019-03-27T12:39:20.727Z,94684.64
2019-03-27T12:41:51.588Z,94781.96
2019-03-27T12:44:21.284Z,94824.23
2019-03-27T12:46:51.991Z,94932.75
2019-03-27T12:49:21.890Z,95040.27
2019-03-27T12:51:51.614Z,95085.55
2019-03-27T12:54:21.406Z,95202.77
2019-03-27T12:56:52.228Z,95227.85
2019-03-27T12:59:22.893Z,95272.75
2019-03-27T13:01:52.863Z,95371.55
2019-03-27T13:04:22.605Z,95472.92
2019-03-27T13:06:52.476Z,95616.44
2019-03-27T13:09:22.379Z,95676.04
2019-03-27T13:11:52.217Z,95742.20
2019-03-27T13:14:21.981Z,95746.63
2019-03-27T13:16:52.440Z,95787.16
2019-03-27T13:19:22.483Z,95783.34
2019-03-27T13:21:52.302Z,95792.25
2019-03-27T13:24:23.563Z,95787.98
2019-03-27T13:26:54.513Z,95787.48
2019-03-27T13:29:26.861Z,95750.14
2019-03-27T13:31:58.993Z,95724.94
2019-03-27T13:34:28.675Z,95679.49
2019-03-27T13:37:01.095Z,95688.22
2019-03-27T13:39:30.937Z,95757.48
2019-03-27T13:42:01.485Z,95675.92
2019-03-27T13:44:37.034Z,95579.24
2019-03-27T13:47:02.885Z,95503.20
2019-03-27T13:49:33.735Z,95433.38
2019-03-27T13:52:05.024Z,95399.65
2019-03-27T13:54:34.685Z,95355.11
2019-03-27T13:57:04.542Z,95412.45
2019-03-27T13:59:34.359Z,95335.80
2019-03-27T14:02:04.398Z,95297.25
2019-03-27T14:04:34.145Z,95411.50
2019-03-27T14:07:04.433Z,95405.71
2019-03-27T14:09:34.187Z,95443.98
2019-03-27T14:12:04.032Z,95509.56
2019-03-27T14:14:33.833Z,95548.78
2019-03-27T14:17:03.585Z,95521.81
2019-03-27T14:19:34.993Z,95473.39
2019-03-27T14:22:04.806Z,95416.00
2019-03-27T14:24:34.568Z,95408.17
2019-03-27T14:27:04.395Z,95520.90
2019-03-27T14:29:34.179Z,95466.17
2019-03-27T14:32:03.931Z,95408.95
2019-03-27T14:34:34.678Z,95364.20
2019-03-27T14:37:04.600Z,95363.23
2019-03-27T14:39:34.357Z,95347.62
2019-03-27T14:42:04.510Z,95303.41
2019-03-27T14:44:36.307Z,95305.47
2019-03-27T14:47:05.976Z,95296.13
2019-03-27T14:49:37.711Z,95320.69
2019-03-27T14:52:08.439Z,95343.77
2019-03-27T14:54:41.468Z,95372.16
2019-03-27T14:57:11.251Z,95376.41
2019-03-27T14:59:41.065Z,95327.41
2019-03-27T15:02:10.890Z,95244.14
2019-03-27T15:04:40.666Z,95266.77
2019-03-27T15:07:11.977Z,95241.56
2019-03-27T15:09:41.786Z,95251.24
2019-03-27T15:12:11.681Z,95295.16
2019-03-27T15:14:41.460Z,95308.06
2019-03-27T15:17:11.299Z,95308.06
2019-03-27T15:19:41.116Z,95283.25
2019-03-27T15:22:21.674Z,95217.95
2019-03-27T15:24:42.412Z,95196.73
2019-03-27T15:27:12.172Z,95191.61
2019-03-27T15:29:41.955Z,95247.88
2019-03-27T15:32:11.867Z,95222.87
2019-03-27T15:34:41.620Z,95192.28
2019-03-27T15:37:11.752Z,95186.92
2019-03-27T15:39:41.526Z,95178.28
2019-03-27T15:42:11.640Z,95155.59
2019-03-27T15:44:41.381Z,95120.29
2019-03-27T15:47:11.171Z,95060.38
2019-03-27T15:49:40.961Z,95029.39
2019-03-27T15:52:10.808Z,95018.16
2019-03-27T15:54:40.690Z,94954.98
2019-03-27T15:57:10.552Z,94940.44
2019-03-27T15:59:40.420Z,94899.05
2019-03-27T16:02:10.424Z,94902.39
2019-03-27T16:04:40.344Z,94873.55
2019-03-27T16:07:10.225Z,94870.72
2019-03-27T16:09:39.977Z,94897.30
2019-03-27T16:12:10.245Z,94898.49
2019-03-27T16:14:40.070Z,94881.00
2019-03-27T16:17:13.514Z,94880.16
2019-03-27T16:19:41.437Z,94851.94
2019-03-27T16:22:11.286Z,94825.97
2019-03-27T16:24:41.057Z,94782.64
2019-03-27T16:27:10.954Z,94772.91
2019-03-27T16:29:40.984Z,94772.97
2019-03-27T16:32:11.992Z,94741.37
2019-03-27T16:34:41.964Z,94680.32
2019-03-27T16:37:11.751Z,94670.16
2019-03-27T16:39:41.628Z,94649.09
2019-03-27T16:42:11.582Z,94628.53
2019-03-27T16:44:41.355Z,94585.92
2019-03-27T16:47:12.938Z,94543.09
2019-03-27T16:49:43.712Z,94535.59
2019-03-27T16:52:13.633Z,94510.51
2019-03-27T16:54:43.391Z,94469.84
2019-03-27T16:57:13.479Z,94430.94
2019-03-27T16:59:43.340Z,94421.24
2019-03-27T17:02:13.203Z,94363.80
2019-03-27T17:04:42.980Z,94345.19
2019-03-27T17:07:12.801Z,94286.25
2019-03-27T17:09:42.708Z,94266.17
2019-03-27T17:12:12.584Z,94240.41
2019-03-27T17:14:42.363Z,94212.58
2019-03-27T17:17:12.261Z,94175.98
2019-03-27T17:19:43.551Z,94163.72
2019-03-27T17:22:19.317Z,94654.28
2019-03-27T17:24:44.947Z,94921.09
2019-03-27T17:27:15.132Z,94737.66
2019-03-27T17:29:45.061Z,94637.50
2019-03-27T17:32:14.896Z,94509.41
2019-03-27T17:34:44.717Z,94401.41
2019-03-27T17:37:14.499Z,94289.73
2019-03-27T17:39:44.343Z,94228.96
2019-03-27T17:42:14.139Z,94131.88
2019-03-27T17:44:43.861Z,94060.95
2019-03-27T17:47:13.696Z,93975.34
2019-03-27T17:49:43.516Z,93933.50
2019-03-27T17:52:13.358Z,93884.38
2019-03-27T17:54:43.125Z,93868.55
2019-03-27T17:57:13.051Z,93806.42
2019-03-27T17:59:42.928Z,93747.91
2019-03-27T18:02:12.974Z,93671.74
2019-03-27T18:04:43.451Z,93626.81
2019-03-27T18:07:13.345Z,93557.74
2019-03-27T18:09:43.455Z,93437.45
2019-03-27T18:12:13.349Z,93373.06
2019-03-27T18:14:43.335Z,93319.35
2019-03-27T18:17:13.143Z,93592.02
2019-03-27T18:19:43.001Z,93457.27
2019-03-27T18:22:13.219Z,93246.87
2019-03-27T18:24:43.029Z,93391.09
2019-03-27T18:27:13.157Z,93608.09
2019-03-27T18:29:43.933Z,93603.54
2019-03-27T18:32:13.936Z,93477.97
2019-03-27T18:34:43.804Z,93608.33
2019-03-27T18:37:13.709Z,93666.34
2019-03-27T18:39:43.555Z,93521.73
2019-03-27T18:42:13.591Z,93384.08
2019-03-27T18:44:43.619Z,93397.00
2019-03-27T18:47:15.170Z,93434.35
2019-03-27T18:49:45.469Z,93711.21
2019-03-27T18:52:15.685Z,93777.23
2019-03-27T18:54:45.735Z,93504.17
2019-03-27T18:57:16.099Z,93281.72
2019-03-27T18:59:46.772Z,93071.50
2019-03-27T19:02:17.012Z,93141.01
2019-03-27T19:04:46.794Z,92997.00
2019-03-27T19:07:16.621Z,92981.06
2019-03-27T19:09:46.630Z,93050.05
2019-03-27T19:12:16.568Z,93054.28
2019-03-27T19:14:46.592Z,93068.11
2019-03-27T19:17:18.783Z,92986.10
2019-03-27T19:19:48.648Z,92898.05
2019-03-27T19:22:19.732Z,92781.20
2019-03-27T19:24:49.639Z,92609.30
2019-03-27T19:27:19.527Z,92433.41
2019-03-27T19:29:49.253Z,92824.80
2019-03-27T19:32:19.168Z,92650.48
2019-03-27T19:34:51.125Z,92496.30
2019-03-27T19:37:20.563Z,92368.23
2019-03-27T19:39:50.416Z,92244.91
2019-03-27T19:42:20.387Z,92117.92
2019-03-27T19:44:51.019Z,91959.97
2019-03-27T19:47:20.865Z,91959.18
2019-03-27T19:49:50.757Z,91940.85
2019-03-27T19:52:20.583Z,92507.88
2019-03-27T19:54:50.421Z,93677.60
2019-03-27T19:57:20.259Z,93080.13
2019-03-27T19:59:50.181Z,92602.64
2019-03-27T20:02:20.057Z,92290.52
2019-03-27T20:04:49.851Z,92054.31
2019-03-27T20:07:20.136Z,91847.52
2019-03-27T20:09:50.453Z,91673.59
2019-03-27T20:12:21.219Z,91598.98
2019-03-27T20:14:51.069Z,91463.81
2019-03-27T20:17:21.098Z,91384.03
2019-03-27T20:19:50.995Z,91245.98
2019-03-27T20:22:20.957Z,91156.74
2019-03-27T20:24:51.101Z,91071.52
2019-03-27T20:27:20.914Z,90999.06
2019-03-27T20:29:50.895Z,90939.73
2019-03-27T20:32:20.713Z,90823.67
2019-03-27T20:34:50.583Z,90472.86
2019-03-27T20:37:20.432Z,90271.77
2019-03-27T20:39:50.691Z,90131.88
2019-03-27T20:42:20.891Z,89966.08
2019-03-27T20:44:50.772Z,89881.41
2019-03-27T20:47:20.628Z,89750.64
2019-03-27T20:49:50.432Z,89687.29
2019-03-27T20:52:20.635Z,89604.27
2019-03-27T20:54:55.318Z,89612.55
2019-03-27T20:57:24.187Z,89534.78
2019-03-27T20:59:55.596Z,89465.58
2019-03-27T21:02:26.319Z,89319.36
2019-03-27T21:04:56.074Z,89225.93
2019-03-27T21:07:26.114Z,88904.72
2019-03-27T21:09:55.831Z,88855.95
2019-03-27T21:12:25.807Z,88970.60
2019-03-27T21:14:57.271Z,88955.07
2019-03-27T21:17:27.319Z,88934.37
2019-03-27T21:19:57.102Z,88786.28
2019-03-27T21:22:26.896Z,88741.55
2019-03-27T21:25:08.147Z,88561.58
2019-03-27T21:27:28.099Z,88425.44
2019-03-27T21:29:59.352Z,88571.70
2019-03-27T21:32:29.092Z,88730.47
2019-03-27T21:34:59.107Z,88594.67
2019-03-27T21:37:28.849Z,88561.07
2019-03-27T21:39:58.970Z,88475.58
2019-03-27T21:42:28.675Z,88549.12
2019-03-27T21:44:58.417Z,88374.48
2019-03-27T21:47:28.150Z,88238.89
2019-03-27T21:49:57.944Z,88185.19
2019-03-27T21:52:28.070Z,88294.42
2019-03-27T21:54:57.812Z,88014.78
2019-03-27T21:57:27.606Z,87823.46
2019-03-27T21:59:57.334Z,87790.52
2019-03-27T22:02:27.208Z,87570.64
2019-03-27T22:04:56.996Z,87443.97
2019-03-27T22:07:26.674Z,87416.80
2019-03-27T22:09:56.409Z,87342.84
2019-03-27T22:12:26.077Z,87160.31
2019-03-27T22:14:55.743Z,87151.84
2019-03-27T22:17:25.450Z,86971.70
2019-03-27T22:19:55.550Z,86854.05
2019-03-27T22:22:25.274Z,86746.86
2019-03-27T22:24:54.950Z,86716.45
2019-03-27T22:27:24.714Z,86669.37
2019-03-27T22:29:54.509Z,86590.38
2019-03-27T22:32:24.271Z,86516.26
2019-03-27T22:34:53.988Z,86301.22
2019-03-27T22:37:23.790Z,86116.13
2019-03-27T22:39:53.523Z,86072.05
2019-03-27T22:42:23.244Z,86099.81
2019-03-27T22:44:52.978Z,86064.79
2019-03-27T22:47:22.758Z,85941.28
2019-03-27T22:49:52.540Z,85864.98
2019-03-27T22:52:22.358Z,85901.23
2019-03-27T22:54:52.023Z,86263.91
2019-03-27T22:57:21.742Z,85911.91
2019-03-27T22:59:51.420Z,85929.89
2019-03-27T23:02:21.191Z,85858.25
2019-03-27T23:04:50.927Z,85951.11
2019-03-27T23:07:20.680Z,85913.09
2019-03-27T23:09:50.444Z,85771.94
2019-03-27T23:12:20.254Z,85681.16
2019-03-27T23:14:50.022Z,85396.20
2019-03-27T23:17:19.735Z,85396.20
2019-03-27T23:19:51.287Z,85362.69
2019-03-27T23:22:20.940Z,85380.16
2019-03-27T23:24:50.657Z,85263.81
2019-03-27T23:27:20.347Z,85432.31
2019-03-27T23:29:50.048Z,85375.75
2019-03-27T23:32:19.732Z,85354.38
2019-03-27T23:34:49.427Z,85161.23
2019-03-27T23:37:19.226Z,85161.23
2019-03-27T23:39:48.905Z,84938.46
2019-03-27T23:42:18.619Z,84899.72
2019-03-27T23:44:48.363Z,84855.25
2019-03-27T23:47:18.027Z,84865.91
2019-03-27T23:49:47.695Z,84777.98
2019-03-27T23:52:17.509Z,84753.95
2019-03-27T23:54:47.297Z,84650.33
2019-03-27T23:57:17.557Z,84547.45
2019-03-27T23:59:47.733Z,84444.76
